sensor_id;sensor_type;location;lat;lon;timestamp;P1;durP1;ratioP1;P2;durP2;ratioP2
68507;SDS011;55510;49.560;19.090;2022-10-16T13:09:52;8.90;;;5.30;;
68507;SDS011;55510;49.560;19.090;2022-10-16T13:23:46;9.80;;;4.95;;
68507;SDS011;55510;49.560;19.090;2022-10-16T13:27:02;10.07;;;5.68;;
68507;SDS011;55510;49.560;19.090;2022-10-16T13:30:17;9.25;;;5.47;;
68507;SDS011;55510;49.560;19.090;2022-10-16T13:33:30;10.10;;;5.30;;
68507;SDS011;55510;49.560;19.090;2022-10-16T13:36:35;9.30;;;4.80;;
68507;SDS011;55510;49.560;19.090;2022-10-16T13:39:44;10.15;;;5.35;;
68507;SDS011;55510;49.560;19.090;2022-10-16T13:42:45;9.80;;;5.28;;
68507;SDS011;55510;49.560;19.090;2022-10-16T13:48:58;8.73;;;5.07;;
68507;SDS011;55510;49.560;19.090;2022-10-16T13:52:01;11.20;;;5.68;;
68507;SDS011;55510;49.560;19.090;2022-10-16T13:55:03;8.37;;;4.77;;
68507;SDS011;55510;49.560;19.090;2022-10-16T13:58:14;9.43;;;5.07;;
68507;SDS011;55510;49.560;19.090;2022-10-16T14:04:20;7.95;;;4.63;;
68507;SDS011;55510;49.560;19.090;2022-10-16T14:07:25;10.47;;;6.00;;
68507;SDS011;55510;49.560;19.090;2022-10-16T14:10:29;8.00;;;4.93;;
68507;SDS011;55510;49.560;19.090;2022-10-16T14:13:38;12.48;;;7.40;;
68507;SDS011;55510;49.560;19.090;2022-10-16T14:16:43;12.43;;;8.05;;
68507;SDS011;55510;49.560;19.090;2022-10-16T14:19:48;9.82;;;6.75;;
68507;SDS011;55510;49.560;19.090;2022-10-16T14:22:57;13.07;;;7.77;;
68507;SDS011;55510;49.560;19.090;2022-10-16T14:29:13;11.23;;;6.50;;
68507;SDS011;55510;49.560;19.090;2022-10-16T14:32:22;11.75;;;6.15;;
68507;SDS011;55510;49.560;19.090;2022-10-16T14:38:29;9.73;;;5.43;;
68507;SDS011;55510;49.560;19.090;2022-10-16T14:41:32;10.17;;;6.43;;
68507;SDS011;55510;49.560;19.090;2022-10-16T14:44:43;10.05;;;5.70;;
68507;SDS011;55510;49.560;19.090;2022-10-16T14:47:52;10.00;;;5.07;;
68507;SDS011;55510;49.560;19.090;2022-10-16T14:50:56;9.70;;;5.63;;
68507;SDS011;55510;49.560;19.090;2022-10-16T14:53:56;12.77;;;7.30;;
68507;SDS011;55510;49.560;19.090;2022-10-16T14:56:57;12.00;;;6.38;;
68507;SDS011;55510;49.560;19.090;2022-10-16T14:59:59;10.57;;;6.30;;
68507;SDS011;55510;49.560;19.090;2022-10-16T15:03:00;11.80;;;6.13;;
68507;SDS011;55510;49.560;19.090;2022-10-16T15:06:00;9.50;;;6.07;;
68507;SDS011;55510;49.560;19.090;2022-10-16T15:09:01;10.30;;;6.10;;
68507;SDS011;55510;49.560;19.090;2022-10-16T15:12:02;13.87;;;8.23;;
68507;SDS011;55510;49.560;19.090;2022-10-16T15:18:37;13.13;;;7.53;;
68507;SDS011;55510;49.560;19.090;2022-10-16T15:21:38;12.50;;;7.83;;
68507;SDS011;55510;49.560;19.090;2022-10-16T15:24:38;16.63;;;9.77;;
68507;SDS011;55510;49.560;19.090;2022-10-16T15:27:40;15.03;;;8.20;;
68507;SDS011;55510;49.560;19.090;2022-10-16T15:30:40;18.60;;;9.60;;
68507;SDS011;55510;49.560;19.090;2022-10-16T15:33:42;24.08;;;11.60;;
68507;SDS011;55510;49.560;19.090;2022-10-16T15:36:45;25.20;;;12.63;;
68507;SDS011;55510;49.560;19.090;2022-10-16T15:39:46;25.52;;;12.45;;
68507;SDS011;55510;49.560;19.090;2022-10-16T15:42:47;26.20;;;12.40;;
68507;SDS011;55510;49.560;19.090;2022-10-16T15:45:57;46.10;;;20.75;;
68507;SDS011;55510;49.560;19.090;2022-10-16T15:49:02;56.80;;;24.40;;
68507;SDS011;55510;49.560;19.090;2022-10-16T15:52:03;58.10;;;26.50;;
68507;SDS011;55510;49.560;19.090;2022-10-16T15:55:05;53.63;;;24.60;;
68507;SDS011;55510;49.560;19.090;2022-10-16T15:58:06;46.03;;;22.13;;
68507;SDS011;55510;49.560;19.090;2022-10-16T16:01:07;34.33;;;17.67;;
68507;SDS011;55510;49.560;19.090;2022-10-16T16:04:10;32.45;;;16.00;;
68507;SDS011;55510;49.560;19.090;2022-10-16T16:07:11;24.30;;;12.53;;
68507;SDS011;55510;49.560;19.090;2022-10-16T16:10:12;26.55;;;12.77;;
68507;SDS011;55510;49.560;19.090;2022-10-16T16:13:13;26.00;;;12.82;;
68507;SDS011;55510;49.560;19.090;2022-10-16T16:16:14;45.60;;;21.43;;
68507;SDS011;55510;49.560;19.090;2022-10-16T16:19:16;52.85;;;23.17;;
68507;SDS011;55510;49.560;19.090;2022-10-16T16:22:21;71.30;;;28.67;;
68507;SDS011;55510;49.560;19.090;2022-10-16T16:25:21;59.67;;;25.30;;
68507;SDS011;55510;49.560;19.090;2022-10-16T16:28:22;63.03;;;25.05;;
68507;SDS011;55510;49.560;19.090;2022-10-16T16:31:24;57.60;;;28.50;;
68507;SDS011;55510;49.560;19.090;2022-10-16T16:34:26;48.58;;;23.90;;
68507;SDS011;55510;49.560;19.090;2022-10-16T16:37:28;42.15;;;22.00;;
68507;SDS011;55510;49.560;19.090;2022-10-16T16:40:29;56.43;;;24.60;;
68507;SDS011;55510;49.560;19.090;2022-10-16T16:43:29;60.80;;;30.77;;
68507;SDS011;55510;49.560;19.090;2022-10-16T16:46:30;55.17;;;26.77;;
68507;SDS011;55510;49.560;19.090;2022-10-16T16:49:32;55.53;;;27.08;;
68507;SDS011;55510;49.560;19.090;2022-10-16T16:52:34;47.33;;;23.80;;
68507;SDS011;55510;49.560;19.090;2022-10-16T16:55:35;49.73;;;25.10;;
68507;SDS011;55510;49.560;19.090;2022-10-16T16:58:36;44.33;;;23.73;;
68507;SDS011;55510;49.560;19.090;2022-10-16T17:01:36;47.55;;;22.58;;
68507;SDS011;55510;49.560;19.090;2022-10-16T17:04:37;46.53;;;21.67;;
68507;SDS011;55510;49.560;19.090;2022-10-16T17:07:38;43.95;;;21.00;;
68507;SDS011;55510;49.560;19.090;2022-10-16T17:10:44;34.37;;;18.13;;
68507;SDS011;55510;49.560;19.090;2022-10-16T17:13:44;32.17;;;17.20;;
68507;SDS011;55510;49.560;19.090;2022-10-16T17:16:46;33.88;;;17.45;;
68507;SDS011;55510;49.560;19.090;2022-10-16T17:19:49;39.97;;;20.77;;
68507;SDS011;55510;49.560;19.090;2022-10-16T17:22:50;76.73;;;33.80;;
68507;SDS011;55510;49.560;19.090;2022-10-16T17:25:51;105.80;;;47.67;;
68507;SDS011;55510;49.560;19.090;2022-10-16T17:28:52;110.63;;;46.23;;
68507;SDS011;55510;49.560;19.090;2022-10-16T17:31:55;92.45;;;41.25;;
68507;SDS011;55510;49.560;19.090;2022-10-16T17:34:56;74.63;;;34.67;;
68507;SDS011;55510;49.560;19.090;2022-10-16T17:37:57;85.13;;;40.13;;
68507;SDS011;55510;49.560;19.090;2022-10-16T17:40:57;87.63;;;42.40;;
68507;SDS011;55510;49.560;19.090;2022-10-16T17:43:58;79.20;;;37.23;;
68507;SDS011;55510;49.560;19.090;2022-10-16T17:47:01;83.68;;;39.38;;
68507;SDS011;55510;49.560;19.090;2022-10-16T17:50:02;89.82;;;41.53;;
68507;SDS011;55510;49.560;19.090;2022-10-16T17:53:03;74.37;;;34.70;;
68507;SDS011;55510;49.560;19.090;2022-10-16T17:56:11;77.68;;;34.40;;
68507;SDS011;55510;49.560;19.090;2022-10-16T17:59:13;67.87;;;30.17;;
68507;SDS011;55510;49.560;19.090;2022-10-16T18:02:14;67.85;;;29.88;;
68507;SDS011;55510;49.560;19.090;2022-10-16T18:05:16;56.17;;;26.10;;
68507;SDS011;55510;49.560;19.090;2022-10-16T18:08:17;49.33;;;24.90;;
68507;SDS011;55510;49.560;19.090;2022-10-16T18:11:18;46.67;;;23.65;;
68507;SDS011;55510;49.560;19.090;2022-10-16T18:14:20;44.05;;;25.17;;
68507;SDS011;55510;49.560;19.090;2022-10-16T18:17:20;46.60;;;25.03;;
68507;SDS011;55510;49.560;19.090;2022-10-16T18:20:21;46.72;;;24.67;;
68507;SDS011;55510;49.560;19.090;2022-10-16T18:23:22;47.77;;;26.20;;
68507;SDS011;55510;49.560;19.090;2022-10-16T18:26:22;54.37;;;27.93;;
68507;SDS011;55510;49.560;19.090;2022-10-16T18:29:27;54.55;;;28.35;;
68507;SDS011;55510;49.560;19.090;2022-10-16T18:32:28;56.80;;;26.13;;
68507;SDS011;55510;49.560;19.090;2022-10-16T18:35:29;52.50;;;27.60;;
68507;SDS011;55510;49.560;19.090;2022-10-16T18:38:30;45.27;;;23.63;;
68507;SDS011;55510;49.560;19.090;2022-10-16T18:41:31;37.25;;;19.00;;
68507;SDS011;55510;49.560;19.090;2022-10-16T18:44:31;40.70;;;17.60;;
68507;SDS011;55510;49.560;19.090;2022-10-16T18:47:32;38.25;;;18.50;;
68507;SDS011;55510;49.560;19.090;2022-10-16T18:50:33;47.80;;;23.27;;
68507;SDS011;55510;49.560;19.090;2022-10-16T18:53:35;44.75;;;20.48;;
68507;SDS011;55510;49.560;19.090;2022-10-16T18:56:37;52.20;;;23.83;;
68507;SDS011;55510;49.560;19.090;2022-10-16T18:59:39;47.97;;;23.80;;
68507;SDS011;55510;49.560;19.090;2022-10-16T19:02:39;66.37;;;31.67;;
68507;SDS011;55510;49.560;19.090;2022-10-16T19:05:40;58.83;;;29.73;;
68507;SDS011;55510;49.560;19.090;2022-10-16T19:08:45;53.40;;;25.77;;
68507;SDS011;55510;49.560;19.090;2022-10-16T19:11:46;54.27;;;25.47;;
68507;SDS011;55510;49.560;19.090;2022-10-16T19:14:47;53.60;;;26.65;;
68507;SDS011;55510;49.560;19.090;2022-10-16T19:17:48;58.78;;;28.08;;
68507;SDS011;55510;49.560;19.090;2022-10-16T19:20:49;58.20;;;29.23;;
68507;SDS011;55510;49.560;19.090;2022-10-16T19:23:53;55.43;;;28.33;;
68507;SDS011;55510;49.560;19.090;2022-10-16T19:26:55;53.85;;;26.63;;
68507;SDS011;55510;49.560;19.090;2022-10-16T19:29:57;48.55;;;24.10;;
68507;SDS011;55510;49.560;19.090;2022-10-16T19:32:57;47.13;;;23.03;;
68507;SDS011;55510;49.560;19.090;2022-10-16T19:39:13;42.63;;;20.65;;
68507;SDS011;55510;49.560;19.090;2022-10-16T19:42:16;41.97;;;20.23;;
68507;SDS011;55510;49.560;19.090;2022-10-16T19:45:17;35.07;;;19.03;;
68507;SDS011;55510;49.560;19.090;2022-10-16T19:48:18;34.80;;;19.07;;
68507;SDS011;55510;49.560;19.090;2022-10-16T19:51:18;35.33;;;20.50;;
68507;SDS011;55510;49.560;19.090;2022-10-16T19:54:19;36.40;;;19.40;;
68507;SDS011;55510;49.560;19.090;2022-10-16T19:57:20;38.60;;;20.53;;
68507;SDS011;55510;49.560;19.090;2022-10-16T20:00:27;38.47;;;21.00;;
68507;SDS011;55510;49.560;19.090;2022-10-16T20:03:27;39.90;;;20.60;;
68507;SDS011;55510;49.560;19.090;2022-10-16T20:06:28;42.92;;;22.02;;
68507;SDS011;55510;49.560;19.090;2022-10-16T20:09:28;42.00;;;20.13;;
68507;SDS011;55510;49.560;19.090;2022-10-16T20:12:29;39.38;;;19.92;;
68507;SDS011;55510;49.560;19.090;2022-10-16T20:15:30;36.70;;;19.10;;
68507;SDS011;55510;49.560;19.090;2022-10-16T20:18:31;37.65;;;19.10;;
68507;SDS011;55510;49.560;19.090;2022-10-16T20:21:33;37.70;;;20.13;;
68507;SDS011;55510;49.560;19.090;2022-10-16T20:24:34;34.97;;;17.77;;
68507;SDS011;55510;49.560;19.090;2022-10-16T20:27:35;37.42;;;20.00;;
68507;SDS011;55510;49.560;19.090;2022-10-16T20:30:37;32.93;;;17.97;;
68507;SDS011;55510;49.560;19.090;2022-10-16T20:33:40;36.43;;;16.90;;
68507;SDS011;55510;49.560;19.090;2022-10-16T20:36:41;36.20;;;19.92;;
68507;SDS011;55510;49.560;19.090;2022-10-16T20:39:49;37.00;;;19.05;;
68507;SDS011;55510;49.560;19.090;2022-10-16T20:42:50;39.87;;;19.03;;
68507;SDS011;55510;49.560;19.090;2022-10-16T20:45:57;44.28;;;20.63;;
68507;SDS011;55510;49.560;19.090;2022-10-16T20:49:05;36.17;;;19.07;;
68507;SDS011;55510;49.560;19.090;2022-10-16T20:52:08;41.10;;;19.40;;
68507;SDS011;55510;49.560;19.090;2022-10-16T20:55:08;36.70;;;18.50;;
68507;SDS011;55510;49.560;19.090;2022-10-16T20:58:09;32.47;;;16.50;;
68507;SDS011;55510;49.560;19.090;2022-10-16T21:01:15;29.73;;;15.55;;
68507;SDS011;55510;49.560;19.090;2022-10-16T21:04:17;28.98;;;16.58;;
68507;SDS011;55510;49.560;19.090;2022-10-16T21:07:18;34.07;;;17.70;;
68507;SDS011;55510;49.560;19.090;2022-10-16T21:10:19;39.50;;;18.97;;
68507;SDS011;55510;49.560;19.090;2022-10-16T21:13:19;37.13;;;18.65;;
68507;SDS011;55510;49.560;19.090;2022-10-16T21:16:20;43.50;;;21.40;;
68507;SDS011;55510;49.560;19.090;2022-10-16T21:19:21;42.88;;;21.75;;
68507;SDS011;55510;49.560;19.090;2022-10-16T21:22:22;35.00;;;19.17;;
68507;SDS011;55510;49.560;19.090;2022-10-16T21:25:22;34.60;;;17.75;;
68507;SDS011;55510;49.560;19.090;2022-10-16T21:28:23;32.87;;;16.70;;
68507;SDS011;55510;49.560;19.090;2022-10-16T21:31:24;39.08;;;19.70;;
68507;SDS011;55510;49.560;19.090;2022-10-16T21:34:25;33.60;;;16.17;;
68507;SDS011;55510;49.560;19.090;2022-10-16T21:37:26;31.70;;;16.90;;
68507;SDS011;55510;49.560;19.090;2022-10-16T21:40:27;30.80;;;17.08;;
68507;SDS011;55510;49.560;19.090;2022-10-16T21:43:29;34.17;;;17.60;;
68507;SDS011;55510;49.560;19.090;2022-10-16T21:46:30;31.53;;;15.10;;
68507;SDS011;55510;49.560;19.090;2022-10-16T21:49:32;27.55;;;14.20;;
68507;SDS011;55510;49.560;19.090;2022-10-16T21:52:33;28.07;;;15.00;;
68507;SDS011;55510;49.560;19.090;2022-10-16T21:55:34;29.85;;;15.13;;
68507;SDS011;55510;49.560;19.090;2022-10-16T21:58:35;28.83;;;14.67;;
68507;SDS011;55510;49.560;19.090;2022-10-16T22:01:36;32.78;;;17.02;;
68507;SDS011;55510;49.560;19.090;2022-10-16T22:04:36;39.43;;;18.37;;
68507;SDS011;55510;49.560;19.090;2022-10-16T22:07:37;30.42;;;15.77;;
68507;SDS011;55510;49.560;19.090;2022-10-16T22:10:38;28.90;;;16.20;;
68507;SDS011;55510;49.560;19.090;2022-10-16T22:13:39;29.20;;;15.35;;
68507;SDS011;55510;49.560;19.090;2022-10-16T22:16:40;28.88;;;14.60;;
68507;SDS011;55510;49.560;19.090;2022-10-16T22:19:41;27.10;;;14.77;;
68507;SDS011;55510;49.560;19.090;2022-10-16T22:22:42;25.83;;;14.70;;
68507;SDS011;55510;49.560;19.090;2022-10-16T22:25:43;29.80;;;14.20;;
68507;SDS011;55510;49.560;19.090;2022-10-16T22:28:44;31.88;;;16.10;;
68507;SDS011;55510;49.560;19.090;2022-10-16T22:31:44;29.97;;;14.97;;
68507;SDS011;55510;49.560;19.090;2022-10-16T22:34:45;27.02;;;13.98;;
68507;SDS011;55510;49.560;19.090;2022-10-16T22:37:46;31.07;;;15.50;;
68507;SDS011;55510;49.560;19.090;2022-10-16T22:40:46;29.43;;;15.67;;
68507;SDS011;55510;49.560;19.090;2022-10-16T22:43:48;32.33;;;15.67;;
68507;SDS011;55510;49.560;19.090;2022-10-16T22:46:49;31.50;;;15.23;;
68507;SDS011;55510;49.560;19.090;2022-10-16T22:49:50;26.40;;;13.73;;
68507;SDS011;55510;49.560;19.090;2022-10-16T22:52:50;25.40;;;12.97;;
68507;SDS011;55510;49.560;19.090;2022-10-16T22:55:51;23.95;;;13.00;;
68507;SDS011;55510;49.560;19.090;2022-10-16T22:58:52;20.73;;;11.03;;
68507;SDS011;55510;49.560;19.090;2022-10-16T23:01:53;22.05;;;10.82;;
68507;SDS011;55510;49.560;19.090;2022-10-16T23:04:54;21.07;;;10.43;;
68507;SDS011;55510;49.560;19.090;2022-10-16T23:07:54;20.70;;;10.98;;
68507;SDS011;55510;49.560;19.090;2022-10-16T23:10:55;22.67;;;11.53;;
68507;SDS011;55510;49.560;19.090;2022-10-16T23:14:00;25.90;;;12.95;;
68507;SDS011;55510;49.560;19.090;2022-10-16T23:17:00;27.33;;;13.73;;
68507;SDS011;55510;49.560;19.090;2022-10-16T23:20:01;32.45;;;14.45;;
68507;SDS011;55510;49.560;19.090;2022-10-16T23:23:02;26.07;;;13.17;;
68507;SDS011;55510;49.560;19.090;2022-10-16T23:26:08;25.50;;;12.27;;
68507;SDS011;55510;49.560;19.090;2022-10-16T23:29:11;24.33;;;12.77;;
68507;SDS011;55510;49.560;19.090;2022-10-16T23:32:12;29.40;;;15.27;;
68507;SDS011;55510;49.560;19.090;2022-10-16T23:35:12;26.67;;;15.30;;
68507;SDS011;55510;49.560;19.090;2022-10-16T23:38:13;24.20;;;12.30;;
68507;SDS011;55510;49.560;19.090;2022-10-16T23:41:14;22.55;;;12.10;;
68507;SDS011;55510;49.560;19.090;2022-10-16T23:44:15;22.97;;;11.97;;
68507;SDS011;55510;49.560;19.090;2022-10-16T23:47:16;21.13;;;11.20;;
68507;SDS011;55510;49.560;19.090;2022-10-16T23:50:17;23.80;;;11.38;;
68507;SDS011;55510;49.560;19.090;2022-10-16T23:53:18;24.57;;;12.00;;
68507;SDS011;55510;49.560;19.090;2022-10-16T23:56:19;23.87;;;10.93;;
68507;SDS011;55510;49.560;19.090;2022-10-16T23:59:20;21.30;;;10.65;;
